Time;durP1;ratioP1;P1;durP2;ratioP2;P2;SDS_P1;SDS_P2;PMS_P1;PMS_P2;Temp;Humidity;BMP_temperature;BMP_pressure;BME280_temperature;BME280_humidity;BME280_pressure;Samples;Min_cycle;Max_cycle;Signal;HPM_P1;HPM_P2
2022/09/11 00:01:07;;;;;;;31.27;22.85;;;14.90;99.90;;;;;;5138105;27;20039;-85
2022/09/11 00:03:33;;;;;;;32.40;25.25;;;15.00;99.90;;;;;;5101672;27;20039;-82
2022/09/11 00:06:09;;;;;;;33.38;24.17;;;15.10;99.90;;;;;;5091035;27;20043;-82
2022/09/11 00:08:36;;;;;;;33.00;23.45;;;15.10;99.90;;;;;;5129884;27;20039;-81
2022/09/11 00:11:12;;;;;;;33.90;24.20;;;15.30;99.90;;;;;;5095125;27;20080;-81
2022/09/11 00:13:40;;;;;;;33.92;24.90;;;15.30;99.90;;;;;;5105189;27;20041;-82
2022/09/11 00:16:16;;;;;;;33.08;24.25;;;16.10;99.90;;;;;;5120960;27;20058;-82
2022/09/11 00:18:42;;;;;;;29.52;23.77;;;15.30;99.90;;;;;;5116938;27;20034;-81
2022/09/11 00:21:08;;;;;;;30.17;24.45;;;15.40;99.90;;;;;;5103000;27;20099;-80
2022/09/11 00:23:34;;;;;;;34.85;24.10;;;15.30;99.90;;;;;;5120859;27;20122;-83
2022/09/11 00:26:01;;;;;;;31.85;22.10;;;15.40;99.90;;;;;;5121164;27;20039;-81
2022/09/11 00:28:27;;;;;;;35.53;23.40;;;15.30;99.90;;;;;;5113324;27;20034;-83
2022/09/11 00:31:06;;;;;;;28.38;22.88;;;15.20;99.90;;;;;;5100980;27;20043;-82
2022/09/11 00:33:34;;;;;;;33.22;23.63;;;15.10;99.90;;;;;;5120369;27;20043;-83
2022/09/11 00:36:02;;;;;;;28.23;23.98;;;15.10;99.90;;;;;;5121676;27;20478;-85
2022/09/11 00:38:30;;;;;;;29.00;22.27;;;15.10;99.90;;;;;;5126182;27;20042;-84
2022/09/11 00:40:59;;;;;;;31.08;22.83;;;15.10;99.90;;;;;;5122312;27;20130;-83
2022/09/11 00:43:27;;;;;;;32.17;22.38;;;15.00;99.90;;;;;;5116681;27;20043;-83
2022/09/11 00:46:03;;;;;;;27.13;21.45;;;14.90;99.90;;;;;;5107852;27;20038;-82
2022/09/11 00:48:35;;;;;;;28.42;22.05;;;15.00;99.90;;;;;;5121694;27;20046;-82
2022/09/11 00:51:03;;;;;;;26.33;22.02;;;14.90;99.90;;;;;;5086907;27;20046;-82
2022/09/11 00:53:33;;;;;;;31.60;20.42;;;14.80;99.90;;;;;;5130715;27;20043;-82
2022/09/11 00:56:02;;;;;;;28.58;21.65;;;14.80;99.90;;;;;;5118102;27;20043;-82
2022/09/11 00:58:33;;;;;;;23.83;20.25;;;14.90;99.90;;;;;;5128550;27;20046;-82
2022/09/11 01:00:59;;;;;;;28.85;20.67;;;14.80;99.90;;;;;;5118770;27;20035;-81
2022/09/11 01:03:25;;;;;;;25.83;20.85;;;14.90;99.90;;;;;;5115290;27;20042;-82
2022/09/11 01:05:52;;;;;;;29.67;21.58;;;14.90;99.90;;;;;;5117359;27;20039;-81
2022/09/11 01:08:19;;;;;;;27.73;22.05;;;14.80;99.90;;;;;;5106614;27;20135;-82
2022/09/11 01:11:12;;;;;;;30.33;21.30;;;14.90;99.90;;;;;;5115279;27;20517;-82
2022/09/11 01:13:37;;;;;;;27.58;20.98;;;15.00;99.90;;;;;;5118035;27;20069;-81
2022/09/11 01:16:08;;;;;;;33.05;21.90;;;14.90;99.90;;;;;;5115894;27;20082;-82
2022/09/11 01:19:08;;;;;;;28.67;20.83;;;14.90;99.90;;;;;;5113007;27;20031;-82
2022/09/11 01:22:02;;;;;;;29.55;20.75;;;14.90;99.90;;;;;;5119280;27;20054;-82
2022/09/11 01:24:53;;;;;;;23.83;20.20;;;15.00;99.90;;;;;;5135069;27;20046;-82
2022/09/11 01:27:44;;;;;;;26.58;21.70;;;14.90;99.90;;;;;;5119956;27;20042;-82
2022/09/11 01:30:10;;;;;;;24.90;20.30;;;14.90;99.90;;;;;;5120482;27;20043;-82
2022/09/11 01:33:10;;;;;;;27.52;22.20;;;15.00;99.90;;;;;;5137126;27;20088;-83
2022/09/11 01:35:48;;;;;;;25.67;21.30;;;14.90;99.90;;;;;;5128249;27;20070;-82
2022/09/11 01:38:21;;;;;;;22.67;19.13;;;14.80;99.90;;;;;;5119819;27;20043;-82
2022/09/11 01:41:06;;;;;;;25.75;19.55;;;15.00;99.90;;;;;;5119850;27;20033;-82
2022/09/11 01:43:37;;;;;;;24.92;20.25;;;14.90;99.90;;;;;;5113186;27;20042;-83
2022/09/11 01:46:06;;;;;;;29.55;18.65;;;15.00;99.90;;;;;;5116966;27;20041;-83
2022/09/11 01:48:46;;;;;;;26.20;14.52;;;14.80;99.90;;;;;;5120290;27;20095;-83
2022/09/11 01:51:17;;;;;;;18.63;15.43;;;14.70;99.90;;;;;;5120144;27;20039;-84
2022/09/11 01:53:47;;;;;;;21.65;16.80;;;14.70;99.90;;;;;;5119852;27;20043;-82
2022/09/11 01:56:22;;;;;;;23.25;17.23;;;14.70;99.90;;;;;;5116663;27;20041;-83
2022/09/11 01:58:54;;;;;;;23.45;16.52;;;14.80;99.90;;;;;;5120000;27;20046;-82
2022/09/11 02:01:25;;;;;;;19.35;15.85;;;14.70;99.90;;;;;;5119467;27;20130;-83
2022/09/11 02:04:09;;;;;;;19.92;16.48;;;14.60;99.90;;;;;;5121642;27;20038;-85
2022/09/11 02:07:07;;;;;;;19.80;16.65;;;14.60;99.90;;;;;;5117714;27;20030;-83
2022/09/11 02:09:40;;;;;;;22.15;17.48;;;14.80;99.90;;;;;;5072851;27;20043;-85
2022/09/11 02:12:11;;;;;;;22.70;19.02;;;14.80;99.90;;;;;;5136300;27;20083;-84
2022/09/11 02:14:49;;;;;;;24.95;19.42;;;14.80;99.90;;;;;;5100110;27;20459;-85
2022/09/11 02:17:30;;;;;;;26.38;19.60;;;15.00;99.90;;;;;;5117848;27;20086;-85
2022/09/11 02:19:58;;;;;;;27.45;21.10;;;15.00;99.90;;;;;;5118182;27;20121;-84
2022/09/11 02:22:24;;;;;;;24.20;19.27;;;15.10;99.90;;;;;;5120493;27;20058;-85
2022/09/11 02:24:51;;;;;;;24.63;20.17;;;15.10;99.90;;;;;;5118520;27;20030;-85
2022/09/11 02:27:21;;;;;;;24.80;19.35;;;15.10;99.90;;;;;;5112681;27;20035;-85
2022/09/11 02:29:47;;;;;;;25.80;20.23;;;15.10;99.90;;;;;;5134766;27;20034;-85
2022/09/11 02:32:13;;;;;;;25.25;20.02;;;15.10;99.90;;;;;;5099797;27;20031;-85
2022/09/11 02:34:42;;;;;;;28.63;20.38;;;15.20;99.90;;;;;;5081694;27;20080;-85
2022/09/11 02:37:25;;;;;;;21.95;17.70;;;15.10;99.90;;;;;;5101512;27;20038;-85
2022/09/11 02:40:15;;;;;;;23.52;18.50;;;15.10;99.90;;;;;;5118659;27;20042;-84
2022/09/11 02:43:00;;;;;;;21.73;18.27;;;15.10;99.90;;;;;;5118125;27;20045;-83
2022/09/11 02:45:48;;;;;;;20.27;17.70;;;15.10;99.90;;;;;;5133377;27;20130;-85
2022/09/11 02:48:55;;;;;;;22.90;19.38;;;14.90;99.90;;;;;;5112517;27;20109;-86
2022/09/11 02:51:38;;;;;;;22.80;18.85;;;15.20;99.90;;;;;;5123451;27;20486;-84
2022/09/11 02:54:29;;;;;;;25.02;19.60;;;15.00;99.90;;;;;;5116210;27;20042;-85
2022/09/11 02:57:13;;;;;;;22.05;17.75;;;15.10;99.90;;;;;;5118685;27;20056;-84
2022/09/11 02:59:51;;;;;;;23.20;17.98;;;15.00;99.90;;;;;;5119435;27;20034;-84
2022/09/11 03:02:17;;;;;;;23.27;17.85;;;15.00;99.90;;;;;;5115115;27;20383;-85
2022/09/11 03:04:44;;;;;;;25.05;19.02;;;15.00;99.90;;;;;;5094891;27;20038;-85
2022/09/11 03:07:10;;;;;;;23.02;17.98;;;15.00;99.90;;;;;;5100881;27;20043;-84
2022/09/11 03:09:36;;;;;;;23.38;19.65;;;15.00;99.90;;;;;;5102345;27;20424;-82
2022/09/11 03:12:03;;;;;;;24.30;18.88;;;15.00;99.90;;;;;;5109184;27;20043;-83
2022/09/11 03:14:28;;;;;;;25.88;18.25;;;14.90;99.90;;;;;;5097430;28;20041;-82
2022/09/11 03:16:55;;;;;;;26.15;20.13;;;14.90;99.90;;;;;;5095674;27;20118;-85
2022/09/11 03:19:21;;;;;;;24.25;18.70;;;14.90;99.90;;;;;;5082280;28;20376;-84
2022/09/11 03:21:47;;;;;;;23.13;18.75;;;14.90;99.90;;;;;;5091471;27;20122;-83
2022/09/11 03:24:13;;;;;;;26.50;21.50;;;14.90;99.90;;;;;;5112728;27;20039;-84
2022/09/11 03:26:39;;;;;;;23.98;18.42;;;15.00;99.90;;;;;;5101210;27;20043;-85
2022/09/11 03:29:05;;;;;;;27.27;20.30;;;15.00;99.90;;;;;;5118960;27;20116;-85
2022/09/11 03:31:30;;;;;;;27.15;20.55;;;15.00;99.90;;;;;;5101103;27;20035;-85
2022/09/11 03:33:56;;;;;;;26.83;19.42;;;14.90;99.90;;;;;;5099263;27;20074;-85
2022/09/11 03:36:22;;;;;;;29.33;20.92;;;15.00;99.90;;;;;;5097574;28;20435;-83
2022/09/11 03:38:48;;;;;;;27.17;20.13;;;14.90;99.90;;;;;;5098289;28;20039;-84
2022/09/11 03:41:15;;;;;;;24.08;20.30;;;15.00;99.90;;;;;;5097254;28;20164;-83
2022/09/11 03:43:41;;;;;;;21.23;18.35;;;14.90;99.90;;;;;;5111021;27;20508;-83
2022/09/11 03:46:12;;;;;;;22.10;17.73;;;15.00;99.90;;;;;;5118189;27;20095;-86
2022/09/11 03:48:45;;;;;;;25.65;19.65;;;16.20;99.90;;;;;;5122183;27;20332;-86
2022/09/11 03:51:16;;;;;;;20.83;18.63;;;14.50;99.90;;;;;;5089614;27;20065;-86
2022/09/11 03:53:43;;;;;;;21.67;17.92;;;14.90;99.90;;;;;;5119590;27;20043;-87
2022/09/11 03:56:14;;;;;;;22.45;17.55;;;15.00;99.90;;;;;;5120562;27;20129;-88
2022/09/11 03:58:42;;;;;;;28.55;17.40;;;14.70;99.90;;;;;;5118754;27;20039;-87
2022/09/11 04:01:13;;;;;;;21.17;17.65;;;14.90;99.90;;;;;;5109201;27;20103;-86
2022/09/11 04:03:39;;;;;;;23.33;19.58;;;14.80;99.90;;;;;;5103813;27;20062;-87
2022/09/11 04:06:06;;;;;;;20.35;17.45;;;14.80;99.90;;;;;;5121789;27;20031;-84
2022/09/11 04:08:34;;;;;;;17.67;15.20;;;14.80;99.90;;;;;;5102396;28;20103;-83
2022/09/11 04:11:03;;;;;;;20.15;16.45;;;14.60;99.90;;;;;;5085837;28;20085;-83
2022/09/11 04:13:34;;;;;;;19.67;17.15;;;14.80;99.90;;;;;;5099386;28;20034;-85
2022/09/11 04:16:03;;;;;;;20.90;17.50;;;14.80;99.90;;;;;;5097670;28;20039;-84
2022/09/11 04:18:30;;;;;;;20.83;17.48;;;13.90;99.90;;;;;;5101127;27;20615;-83
2022/09/11 04:20:56;;;;;;;20.13;16.38;;;14.70;99.90;;;;;;5108771;27;20138;-83
2022/09/11 04:23:21;;;;;;;22.58;16.13;;;14.70;99.90;;;;;;5078955;28;20118;-83
2022/09/11 04:25:47;;;;;;;23.00;16.58;;;14.90;99.90;;;;;;5097509;28;20035;-83
2022/09/11 04:28:13;;;;;;;18.38;16.08;;;14.70;99.90;;;;;;5067577;27;20031;-83
2022/09/11 04:30:41;;;;;;;18.35;15.35;;;14.80;99.90;;;;;;5118750;27;20043;-84
2022/09/11 04:33:07;;;;;;;17.58;15.73;;;14.80;99.90;;;;;;5118275;27;20406;-84
2022/09/11 04:35:38;;;;;;;17.75;15.85;;;14.60;99.90;;;;;;5117033;27;20117;-83
2022/09/11 04:38:06;;;;;;;17.00;15.20;;;14.60;99.90;;;;;;5117374;27;20059;-84
2022/09/11 04:40:32;;;;;;;16.70;14.82;;;14.70;99.90;;;;;;5112144;27;20109;-84
2022/09/11 04:42:59;;;;;;;21.85;15.63;;;14.70;99.90;;;;;;5073402;27;20433;-83
2022/09/11 04:45:26;;;;;;;16.65;14.85;;;14.60;99.90;;;;;;5103621;27;20050;-84
2022/09/11 04:47:52;;;;;;;17.30;14.32;;;14.60;99.90;;;;;;5104481;27;20432;-84
2022/09/11 04:50:20;;;;;;;16.08;14.15;;;14.50;99.90;;;;;;5103274;27;20099;-85
2022/09/11 04:52:46;;;;;;;15.15;13.65;;;14.50;99.90;;;;;;5119086;27;20087;-84
2022/09/11 04:55:14;;;;;;;20.60;15.25;;;14.50;99.90;;;;;;5086344;27;20042;-86
2022/09/11 04:57:40;;;;;;;16.67;14.80;;;14.60;99.90;;;;;;5142314;27;20057;-84
2022/09/11 05:00:06;;;;;;;18.20;14.65;;;15.00;99.90;;;;;;5121458;27;20047;-84
2022/09/11 05:02:32;;;;;;;21.73;16.52;;;14.60;99.90;;;;;;5105805;27;20084;-85
2022/09/11 05:04:58;;;;;;;18.00;15.13;;;14.60;99.90;;;;;;5085193;27;20474;-82
2022/09/11 05:07:24;;;;;;;20.98;16.58;;;14.60;99.90;;;;;;5098947;27;20069;-83
2022/09/11 05:09:53;;;;;;;21.92;16.63;;;14.70;99.90;;;;;;5105030;27;20042;-83
2022/09/11 05:12:22;;;;;;;19.90;15.32;;;14.70;99.90;;;;;;5100186;27;20078;-84
2022/09/11 05:14:48;;;;;;;19.65;17.10;;;14.80;99.90;;;;;;5086574;27;20364;-83
2022/09/11 05:17:13;;;;;;;20.42;16.52;;;14.70;99.90;;;;;;5103657;27;20061;-86
2022/09/11 05:19:40;;;;;;;19.38;16.27;;;14.70;99.90;;;;;;5071957;27;20608;-85
2022/09/11 05:22:08;;;;;;;20.27;16.27;;;14.90;99.90;;;;;;5099939;27;20050;-85
2022/09/11 05:24:34;;;;;;;22.80;16.13;;;14.90;99.90;;;;;;5117285;27;20035;-84
2022/09/11 05:27:00;;;;;;;17.17;15.25;;;14.70;99.90;;;;;;5127908;27;20042;-84
2022/09/11 05:29:28;;;;;;;18.00;15.82;;;14.90;99.90;;;;;;5070954;28;20042;-84
2022/09/11 05:31:57;;;;;;;20.08;16.42;;;15.00;99.90;;;;;;5097328;28;20511;-85
2022/09/11 05:34:27;;;;;;;16.30;13.82;;;14.90;99.90;;;;;;5105668;28;20036;-84
2022/09/11 05:36:56;;;;;;;20.40;15.93;;;15.00;99.90;;;;;;5100313;27;20043;-85
2022/09/11 05:39:23;;;;;;;20.30;14.95;;;14.90;99.90;;;;;;5083347;27;20493;-85
2022/09/11 05:41:54;;;;;;;15.82;14.02;;;15.00;99.90;;;;;;5080792;28;20100;-86
2022/09/11 05:44:20;;;;;;;16.70;14.30;;;14.80;99.90;;;;;;5092936;28;20092;-86
2022/09/11 05:46:47;;;;;;;18.92;15.88;;;14.90;99.90;;;;;;5097179;27;20042;-85
2022/09/11 05:49:13;;;;;;;17.08;14.23;;;15.00;99.90;;;;;;5119469;27;20041;-84
2022/09/11 05:51:40;;;;;;;16.13;12.93;;;14.90;99.90;;;;;;5116919;28;20126;-86
2022/09/11 05:54:06;;;;;;;19.80;11.18;;;14.90;99.90;;;;;;5105399;27;20053;-85
2022/09/11 05:56:33;;;;;;;16.50;8.95;;;14.70;99.90;;;;;;5115164;28;20032;-85
2022/09/11 05:58:59;;;;;;;22.15;10.02;;;14.60;99.90;;;;;;5096546;27;20049;-85
2022/09/11 06:01:27;;;;;;;11.27;10.15;;;14.60;99.90;;;;;;5106132;27;20067;-85
2022/09/11 06:03:54;;;;;;;13.48;12.07;;;14.70;99.90;;;;;;5131421;27;20115;-85
2022/09/11 06:06:21;;;;;;;12.75;10.98;;;14.80;99.90;;;;;;5115209;28;20091;-85
2022/09/11 06:08:48;;;;;;;12.55;11.32;;;15.00;99.90;;;;;;5113123;27;20035;-86
2022/09/11 06:11:16;;;;;;;14.98;12.00;;;14.80;99.90;;;;;;5103083;27;20480;-87
2022/09/11 06:13:44;;;;;;;14.75;13.13;;;14.80;99.90;;;;;;5116805;27;20045;-81
2022/09/11 06:16:14;;;;;;;15.18;13.15;;;14.90;99.90;;;;;;5081676;27;20046;-86
2022/09/11 06:18:43;;;;;;;14.10;12.60;;;15.00;99.90;;;;;;5107453;28;20063;-85
2022/09/11 06:21:17;;;;;;;21.08;14.95;;;15.10;99.90;;;;;;5110107;28;20142;-86
2022/09/11 06:23:47;;;;;;;21.23;16.67;;;15.40;99.90;;;;;;5093259;27;20969;-83
2022/09/11 06:26:17;;;;;;;20.48;15.27;;;15.50;99.90;;;;;;5115568;27;20490;-83
2022/09/11 06:28:43;;;;;;;20.42;15.77;;;15.60;99.90;;;;;;5115933;27;20394;-83
2022/09/11 06:31:12;;;;;;;19.63;15.70;;;15.50;99.90;;;;;;5115695;27;20035;-83
2022/09/11 06:33:39;;;;;;;19.02;16.65;;;15.60;99.90;;;;;;5115227;27;20035;-84
2022/09/11 06:36:09;;;;;;;19.98;16.10;;;15.80;99.90;;;;;;5130253;27;20096;-83
2022/09/11 06:38:35;;;;;;;18.60;16.70;;;16.00;99.90;;;;;;5101709;28;20529;-82
2022/09/11 06:41:02;;;;;;;17.80;15.82;;;15.90;99.90;;;;;;5081166;27;20039;-82
2022/09/11 06:43:29;;;;;;;21.95;17.60;;;15.90;99.90;;;;;;5106300;28;20067;-83
2022/09/11 06:46:05;;;;;;;18.70;16.70;;;16.10;99.90;;;;;;5095332;28;20035;-82
2022/09/11 06:48:31;;;;;;;19.60;16.95;;;16.10;99.90;;;;;;5096810;27;20487;-83
2022/09/11 06:51:02;;;;;;;21.23;17.70;;;16.40;99.90;;;;;;5093035;27;20077;-84
2022/09/11 06:53:28;;;;;;;19.83;16.33;;;16.50;99.90;;;;;;5127470;27;20114;-84
2022/09/11 06:56:02;;;;;;;21.58;17.27;;;16.60;99.90;;;;;;5078362;28;20174;-83
2022/09/11 06:58:33;;;;;;;20.30;16.58;;;16.70;99.90;;;;;;5094595;28;20488;-85
2022/09/11 07:05:39;;;;;;;17.13;15.27;;;16.70;99.90;;;;;;5086275;28;20059;-86
2022/09/11 07:08:32;;;;;;;16.95;15.23;;;17.00;99.90;;;;;;4998605;28;20047;-84
2022/09/11 07:19:23;;;;;;;15.77;13.98;;;17.30;99.90;;;;;;4927978;29;20101;-85
2022/09/11 07:29:40;;;;;;;18.80;15.70;;;17.60;99.90;;;;;;4872506;29;20035;-85
2022/09/11 07:33:11;;;;;;;18.05;14.55;;;17.90;99.90;;;;;;4859556;29;20041;-86
2022/09/11 07:39:53;;;;;;;19.85;14.45;;;18.30;99.90;;;;;;4917591;29;20499;-84
2022/09/11 07:42:19;;;;;;;15.55;13.52;;;18.30;99.90;;;;;;4951696;28;20069;-86
2022/09/11 07:44:45;;;;;;;16.58;13.30;;;18.30;99.90;;;;;;5035391;28;20064;-83
2022/09/11 07:47:11;;;;;;;16.52;13.73;;;18.40;99.90;;;;;;5052556;28;20626;-83
2022/09/11 07:49:47;;;;;;;16.63;13.18;;;18.10;99.90;;;;;;5036293;28;20123;-85
2022/09/11 07:55:26;;;;;;;16.77;12.80;;;17.70;99.90;;;;;;5058356;28;20113;-83
2022/09/11 07:57:55;;;;;;;11.93;10.65;;;18.60;99.90;;;;;;5080359;28;20040;-84
2022/09/11 08:00:21;;;;;;;11.25;10.05;;;18.60;99.90;;;;;;5058478;28;20039;-84
2022/09/11 08:02:47;;;;;;;13.18;8.93;;;18.70;99.90;;;;;;5074885;28;20096;-84
2022/09/11 08:06:16;;;;;;;12.82;8.35;;;18.60;99.90;;;;;;5091939;28;20702;-83
2022/09/11 08:08:44;;;;;;;9.80;7.00;;;17.80;99.90;;;;;;5101207;28;20094;-84
2022/09/11 08:11:19;;;;;;;10.07;6.68;;;18.50;99.90;;;;;;5076179;28;20348;-83
2022/09/11 08:13:53;;;;;;;9.98;6.05;;;18.60;99.90;;;;;;5080534;28;20131;-83
2022/09/11 08:16:39;;;;;;;6.57;5.78;;;18.60;99.90;;;;;;5056356;28;20452;-83
2022/09/11 08:19:17;;;;;;;7.50;5.32;;;17.20;99.90;;;;;;5073774;28;20472;-84
2022/09/11 08:21:43;;;;;;;9.00;5.63;;;18.80;99.90;;;;;;5093385;28;20074;-83
2022/09/11 08:24:13;;;;;;;8.63;5.93;;;18.60;99.90;;;;;;5062572;28;20076;-84
2022/09/11 08:26:40;;;;;;;12.43;6.40;;;18.60;99.90;;;;;;5080068;28;20772;-84
2022/09/11 08:29:06;;;;;;;9.10;6.70;;;18.60;99.90;;;;;;5062899;28;20043;-84
2022/09/11 08:31:33;;;;;;;6.55;5.72;;;19.00;99.90;;;;;;5056045;28;20089;-85
2022/09/11 08:33:59;;;;;;;6.93;4.45;;;19.20;99.90;;;;;;5077672;28;20146;-85
2022/09/11 08:36:24;;;;;;;6.53;4.28;;;19.30;99.90;;;;;;5079051;28;20471;-83
2022/09/11 08:38:51;;;;;;;5.28;4.05;;;19.60;99.90;;;;;;5063615;28;20097;-83
2022/09/11 08:41:23;;;;;;;5.63;4.00;;;19.40;99.90;;;;;;5080003;28;20097;-83
2022/09/11 08:43:53;;;;;;;4.55;4.00;;;19.60;99.90;;;;;;5094062;28;20096;-83
2022/09/11 08:46:23;;;;;;;5.93;3.97;;;19.70;99.90;;;;;;5079844;28;20100;-84
2022/09/11 08:49:07;;;;;;;4.97;3.60;;;19.90;99.90;;;;;;5080134;28;20039;-84
2022/09/11 08:51:35;;;;;;;6.77;4.40;;;20.00;99.90;;;;;;5079570;28;20032;-83
2022/09/11 08:54:02;;;;;;;7.57;4.70;;;20.00;99.90;;;;;;5073440;28;20101;-85
2022/09/11 08:56:29;;;;;;;6.47;3.60;;;20.00;99.90;;;;;;5059584;28;20044;-83
2022/09/11 08:59:22;;;;;;;5.05;3.70;;;20.00;99.90;;;;;;5059525;28;20058;-82
2022/09/11 09:02:01;;;;;;;5.28;3.53;;;20.10;99.90;;;;;;5059210;28;20052;-82
2022/09/11 09:04:34;;;;;;;5.45;3.60;;;19.90;99.90;;;;;;5081386;28;20041;-82
2022/09/11 09:07:37;;;;;;;8.90;3.65;;;20.20;99.90;;;;;;5065937;28;20047;-84
2022/09/11 09:10:27;;;;;;;4.97;3.47;;;20.00;99.90;;;;;;5079694;28;20039;-85
2022/09/11 09:13:30;;;;;;;6.10;3.20;;;20.20;99.90;;;;;;5065930;28;20046;-84
2022/09/11 09:16:18;;;;;;;5.80;3.42;;;20.20;99.90;;;;;;5078886;28;20046;-85
2022/09/11 09:18:55;;;;;;;5.38;2.70;;;20.10;99.90;;;;;;5079100;28;20492;-85
2022/09/11 09:21:30;;;;;;;3.55;2.30;;;20.20;99.90;;;;;;5079321;28;20410;-83
2022/09/11 09:24:01;;;;;;;7.40;2.80;;;20.00;99.90;;;;;;5088726;27;20059;-85
2022/09/11 09:26:38;;;;;;;4.05;2.33;;;19.90;99.90;;;;;;5096070;28;20043;-82
2022/09/11 09:29:12;;;;;;;3.05;2.20;;;19.90;99.90;;;;;;5080351;28;20077;-83
2022/09/11 09:31:40;;;;;;;4.37;2.30;;;19.70;99.90;;;;;;5102740;28;20456;-82
2022/09/11 09:34:18;;;;;;;3.55;2.00;;;19.90;99.90;;;;;;5080863;28;20043;-82
2022/09/11 09:36:59;;;;;;;4.72;2.30;;;19.80;99.90;;;;;;5095920;28;20044;-81
2022/09/11 09:39:25;;;;;;;5.43;3.20;;;19.80;99.90;;;;;;5080477;28;20656;-82
2022/09/11 09:42:12;;;;;;;3.13;2.42;;;19.90;99.90;;;;;;5049017;27;20499;-82
2022/09/11 09:45:17;;;;;;;5.35;2.65;;;19.90;99.90;;;;;;5090398;27;20372;-80
2022/09/11 09:47:44;;;;;;;4.43;2.30;;;19.80;99.90;;;;;;5079805;28;20039;-81
2022/09/11 09:50:27;;;;;;;2.92;2.10;;;19.80;99.90;;;;;;5100143;27;20035;-80
2022/09/11 09:53:19;;;;;;;3.80;2.38;;;19.80;99.90;;;;;;5116254;27;20050;-81
2022/09/11 09:56:42;;;;;;;3.00;2.20;;;19.80;99.90;;;;;;5071542;27;20039;-82
2022/09/11 09:59:55;;;;;;;3.47;2.38;;;19.80;99.90;;;;;;4961047;28;20066;-81
2022/09/11 10:06:20;;;;;;;4.13;2.30;;;19.20;99.90;;;;;;5038627;28;20067;-75
2022/09/11 10:08:49;;;;;;;2.47;1.70;;;19.80;99.90;;;;;;5030338;28;20053;-81
2022/09/11 10:11:27;;;;;;;3.65;2.17;;;19.80;99.90;;;;;;5019042;28;20381;-81
2022/09/11 10:13:54;;;;;;;2.33;2.10;;;19.60;99.90;;;;;;5038377;27;20088;-81
2022/09/11 10:16:25;;;;;;;4.32;2.13;;;19.50;99.90;;;;;;5099477;27;20031;-82
2022/09/11 10:18:53;;;;;;;3.17;2.00;;;19.50;99.90;;;;;;5096031;27;20039;-76
2022/09/11 10:21:28;;;;;;;3.58;2.08;;;19.40;99.90;;;;;;5115393;27;20122;-81
2022/09/11 10:24:18;;;;;;;3.05;2.25;;;19.50;99.90;;;;;;5105685;27;20421;-80
2022/09/11 10:26:49;;;;;;;4.72;2.50;;;19.30;99.90;;;;;;5118414;27;20139;-81
2022/09/11 10:29:18;;;;;;;4.60;4.15;;;19.30;99.90;;;;;;5135117;27;20118;-81
2022/09/11 10:31:53;;;;;;;6.55;4.15;;;19.30;99.90;;;;;;5136517;27;20038;-83
2022/09/11 10:34:26;;;;;;;6.68;5.25;;;19.20;99.90;;;;;;5136844;27;20042;-82
2022/09/11 10:36:52;;;;;;;7.28;4.78;;;19.20;99.90;;;;;;5118716;27;20129;-82
2022/09/11 10:39:25;;;;;;;6.32;4.10;;;19.20;99.90;;;;;;5119637;27;20478;-82
2022/09/11 10:41:57;;;;;;;5.72;4.18;;;19.10;99.90;;;;;;5131649;27;20051;-82
2022/09/11 10:44:30;;;;;;;5.22;4.32;;;19.00;99.90;;;;;;5120708;27;20440;-83
2022/09/11 11:43:47;;;;;;;5.15;3.80;;;20.50;99.90;;;;;;4945970;28;20040;-80
2022/09/11 11:46:42;;;;;;;4.38;3.47;;;20.50;99.90;;;;;;4921334;29;20157;-81
2022/09/11 11:49:18;;;;;;;3.53;3.15;;;20.40;99.90;;;;;;4921585;29;20443;-81
2022/09/11 11:51:50;;;;;;;4.53;3.35;;;20.70;99.90;;;;;;4935395;29;20476;-81
2022/09/11 13:18:24;;;;;;;4.35;3.15;;;20.30;99.90;;;;;;4875345;29;20052;-81
2022/09/11 13:47:24;;;;;;;5.03;3.17;;;19.90;99.90;;;;;;4858834;29;20096;-80
2022/09/11 13:49:57;;;;;;;4.40;3.35;;;19.90;99.90;;;;;;4846476;29;20136;-80
2022/09/11 13:52:28;;;;;;;4.85;3.35;;;19.90;99.90;;;;;;4847056;29;20061;-81
2022/09/11 13:54:57;;;;;;;3.90;2.97;;;19.60;99.90;;;;;;4866259;29;20406;-81
2022/09/11 13:57:26;;;;;;;5.22;2.90;;;19.90;99.90;;;;;;4919430;29;20102;-80
2022/09/11 13:59:55;;;;;;;5.57;3.38;;;19.90;99.90;;;;;;4950142;29;20059;-81
2022/09/11 14:02:45;;;;;;;4.07;3.13;;;19.80;99.90;;;;;;4934612;29;20079;-80
2022/09/11 14:05:20;;;;;;;3.47;2.97;;;19.80;99.90;;;;;;4902130;29;20040;-81
2022/09/11 14:08:03;;;;;;;6.00;3.47;;;19.90;99.90;;;;;;4903169;29;20154;-80
2022/09/11 14:10:41;;;;;;;5.07;3.10;;;20.00;99.90;;;;;;4922495;29;20047;-80
2022/09/11 14:13:31;;;;;;;5.63;3.13;;;20.10;99.90;;;;;;4921552;29;20040;-80
2022/09/11 14:16:03;;;;;;;5.57;3.80;;;20.30;99.90;;;;;;4902743;29;20494;-80
2022/09/11 14:18:51;;;;;;;4.68;2.88;;;20.30;99.90;;;;;;4903039;29;20499;-81
2022/09/11 14:21:30;;;;;;;2.92;2.60;;;20.40;99.90;;;;;;4918235;29;20051;-81
2022/09/11 14:23:56;;;;;;;3.47;2.25;;;20.30;99.90;;;;;;4902694;29;20043;-81
2022/09/11 14:26:23;;;;;;;4.93;2.20;;;20.40;99.90;;;;;;4901622;29;20519;-81
2022/09/11 14:28:52;;;;;;;2.30;2.10;;;20.40;99.90;;;;;;4902917;29;20485;-81
2022/09/11 14:31:37;;;;;;;3.00;2.20;;;20.50;99.90;;;;;;4902750;29;20047;-81
2022/09/11 14:34:11;;;;;;;2.40;2.20;;;20.40;99.90;;;;;;4932381;29;20051;-80
2022/09/11 14:36:45;;;;;;;;;;;20.50;99.90;;;;;;4933191;29;20043;-80
2022/09/11 14:39:23;;;;;;;2.25;2.05;;;20.50;99.90;;;;;;4929159;29;19942;-80
2022/09/11 14:41:49;;;;;;;3.58;2.33;;;20.50;99.90;;;;;;4902516;29;20048;-80
2022/09/11 14:44:16;;;;;;;3.65;2.47;;;20.50;99.90;;;;;;4916807;29;20043;-81
2022/09/11 14:46:42;;;;;;;3.10;2.35;;;20.60;99.90;;;;;;4919515;29;20054;-80
2022/09/11 14:49:08;;;;;;;4.07;2.20;;;20.60;99.90;;;;;;4914626;29;20035;-79
2022/09/11 14:51:39;;;;;;;3.38;2.03;;;20.60;99.90;;;;;;4911457;29;20098;-81
2022/09/11 14:54:09;;;;;;;2.47;2.05;;;20.70;99.90;;;;;;4922153;29;20138;-80
2022/09/11 14:56:35;;;;;;;3.42;2.00;;;20.70;99.90;;;;;;4936482;28;20039;-80
2022/09/11 14:59:07;;;;;;;3.38;2.65;;;20.60;99.90;;;;;;4918799;29;20404;-80
2022/09/11 15:01:32;;;;;;;2.63;2.17;;;20.50;99.90;;;;;;4921752;28;20718;-81
2022/09/11 15:04:00;;;;;;;2.92;1.75;;;20.40;99.90;;;;;;4906544;29;20039;-80
2022/09/11 15:06:26;;;;;;;2.28;1.75;;;20.30;99.90;;;;;;4953130;28;20040;-81
2022/09/11 15:08:52;;;;;;;2.05;1.75;;;20.80;99.90;;;;;;4937551;29;20042;-80
2022/09/11 15:11:18;;;;;;;3.35;1.80;;;20.30;99.90;;;;;;4904100;28;20050;-80
2022/09/11 15:13:43;;;;;;;3.22;2.22;;;20.40;99.90;;;;;;4918551;29;20083;-81
2022/09/11 15:16:10;;;;;;;3.15;1.63;;;20.30;99.90;;;;;;4902618;29;20047;-80
2022/09/11 15:18:38;;;;;;;4.60;1.83;;;20.40;99.90;;;;;;4919732;28;20038;-80
2022/09/11 15:21:03;;;;;;;2.55;2.08;;;20.50;99.90;;;;;;4936814;28;20043;-80
2022/09/11 15:23:30;;;;;;;6.00;1.92;;;20.50;99.90;;;;;;4936704;29;20035;-80
2022/09/11 15:26:01;;;;;;;2.85;1.73;;;20.50;99.90;;;;;;4921645;29;20058;-80
2022/09/11 15:28:28;;;;;;;3.08;1.90;;;20.50;99.90;;;;;;4936194;29;20045;-80
2022/09/11 15:30:58;;;;;;;4.50;2.03;;;20.40;99.90;;;;;;4937006;28;20182;-80
2022/09/11 15:33:26;;;;;;;3.67;1.73;;;20.40;99.90;;;;;;4948360;29;20047;-81
2022/09/11 15:35:55;;;;;;;1.92;1.60;;;20.40;99.90;;;;;;4921798;29;20055;-80
2022/09/11 15:38:22;;;;;;;2.65;1.90;;;20.30;99.90;;;;;;4905409;29;20047;-81
2022/09/11 15:40:55;;;;;;;3.85;1.80;;;20.30;99.90;;;;;;4919980;29;20053;-80
2022/09/11 15:43:23;;;;;;;1.98;1.60;;;20.20;99.90;;;;;;4920917;29;20034;-80
2022/09/11 15:45:49;;;;;;;2.72;1.50;;;20.30;99.90;;;;;;4919891;29;20254;-81
2022/09/11 15:48:16;;;;;;;2.58;1.33;;;20.20;99.90;;;;;;4935949;29;20039;-80
2022/09/11 15:50:42;;;;;;;4.78;1.90;;;20.20;99.90;;;;;;4913928;29;20047;-81
2022/09/11 15:53:11;;;;;;;1.92;1.73;;;20.20;99.90;;;;;;4933512;29;20067;-80
2022/09/11 15:55:37;;;;;;;1.60;1.40;;;20.10;99.90;;;;;;4906205;28;20388;-80
2022/09/11 15:58:03;;;;;;;3.90;1.85;;;20.20;99.90;;;;;;4904883;29;20107;-81
2022/09/11 16:00:29;;;;;;;3.50;2.05;;;20.10;99.90;;;;;;4909402;29;20043;-81
2022/09/11 16:02:56;;;;;;;2.78;2.22;;;20.00;99.90;;;;;;4907599;29;20043;-80
2022/09/11 16:05:27;;;;;;;3.70;2.63;;;19.90;99.90;;;;;;4917653;29;20044;-81
2022/09/11 16:08:24;;;;;;;3.33;2.30;;;19.80;99.90;;;;;;4925871;29;20403;-80
2022/09/11 16:11:27;;;;;;;2.97;2.67;;;19.70;99.90;;;;;;4921356;29;20043;-80
2022/09/11 16:14:21;;;;;;;4.38;3.00;;;19.60;99.90;;;;;;4918960;28;20046;-80
2022/09/11 16:17:18;;;;;;;4.68;2.78;;;19.30;99.90;;;;;;4952498;28;20063;-81
2022/09/11 16:20:07;;;;;;;3.30;2.50;;;19.60;99.90;;;;;;4859306;29;20057;-80
2022/09/11 16:22:35;;;;;;;2.97;2.47;;;19.40;99.90;;;;;;4921298;29;20497;-80